Time;durP1;ratioP1;P1;durP2;ratioP2;P2;SDS_P1;SDS_P2;PMS_P1;PMS_P2;Temp;Humidity;BMP_temperature;BMP_pressure;BME280_temperature;BME280_humidity;BME280_pressure;Samples;Min_cycle;Max_cycle;Signal;HPM_P1;HPM_P2
2022/09/23 00:02:39;;;;;;;5.03;3.50;;;;;;;;;;5095524;28;20203;-79
2022/09/23 00:05:44;;;;;;;4.23;3.53;;;;;;;;;;5084242;28;20549;-80
2022/09/23 00:08:49;;;;;;;5.73;3.50;;;;;;;;;;5083978;28;20174;-79
2022/09/23 00:11:54;;;;;;;4.17;3.30;;;;;;;;;;5095778;28;20226;-80
2022/09/23 00:14:58;;;;;;;5.97;3.77;;;;;;;;;;5084419;28;20655;-80
2022/09/23 00:18:02;;;;;;;5.17;3.40;;;;;;;;;;5096795;28;20657;-80
2022/09/23 00:21:09;;;;;;;4.27;3.50;;;;;;;;;;5084390;28;20178;-80
2022/09/23 00:24:14;;;;;;;5.00;3.53;;;;;;;;;;5083583;28;20208;-80
2022/09/23 00:27:20;;;;;;;5.03;4.00;;;;;;;;;;5095049;28;20183;-80
2022/09/23 00:30:24;;;;;;;4.30;3.77;;;;;;;;;;5084346;28;20624;-79
2022/09/23 00:33:28;;;;;;;7.47;3.80;;;;;;;;;;5095569;28;20685;-80
2022/09/23 00:36:33;;;;;;;4.57;3.73;;;;;;;;;;5083882;28;20183;-80
2022/09/23 00:39:37;;;;;;;5.03;4.17;;;;;;;;;;5083741;28;20175;-80
2022/09/23 00:42:50;;;;;;;5.83;4.60;;;;;;;;;;5084833;28;20203;-80
2022/09/23 00:45:54;;;;;;;5.73;4.30;;;;;;;;;;5095991;28;20201;-81
2022/09/23 00:49:10;;;;;;;4.60;4.13;;;;;;;;;;5096114;28;20186;-80
2022/09/23 00:52:17;;;;;;;5.50;4.23;;;;;;;;;;5095756;28;20234;-80
2022/09/23 00:55:26;;;;;;;5.47;4.30;;;;;;;;;;5057409;28;1093016;-80
2022/09/23 00:58:32;;;;;;;5.80;4.43;;;;;;;;;;5097100;28;20179;-81
2022/09/23 01:01:37;;;;;;;5.77;4.00;;;;;;;;;;5096222;28;20210;-80
2022/09/23 01:04:41;;;;;;;7.03;4.33;;;;;;;;;;5085397;28;20199;-80
2022/09/23 01:07:46;;;;;;;11.87;4.10;;;;;;;;;;5097717;28;20167;-80
2022/09/23 01:10:49;;;;;;;9.53;4.33;;;;;;;;;;5085092;28;20183;-81
2022/09/23 01:14:15;;;;;;;5.87;4.33;;;;;;;;;;5085229;28;20174;-80
2022/09/23 01:17:22;;;;;;;5.10;4.20;;;;;;;;;;5096539;28;20519;-80
2022/09/23 01:20:55;;;;;;;5.67;4.47;;;;;;;;;;5084811;28;20630;-80
2022/09/23 01:24:30;;;;;;;5.20;3.87;;;;;;;;;;5085093;28;20178;-80
2022/09/23 01:27:50;;;;;;;6.43;4.57;;;;;;;;;;5084468;28;20178;-80
2022/09/23 01:31:12;;;;;;;5.90;4.30;;;;;;;;;;5084740;28;20657;-80
2022/09/23 01:34:17;;;;;;;4.97;4.33;;;;;;;;;;5096103;28;20175;-80
2022/09/23 01:37:45;;;;;;;6.63;4.87;;;;;;;;;;5087859;28;20198;-81
2022/09/23 01:40:58;;;;;;;5.70;4.27;;;;;;;;;;5100819;28;20175;-81
2022/09/23 01:44:11;;;;;;;5.73;4.20;;;;;;;;;;5089151;28;20246;-81
2022/09/23 01:47:47;;;;;;;5.23;4.47;;;;;;;;;;5100373;28;20179;-81
2022/09/23 01:51:01;;;;;;;5.80;4.40;;;;;;;;;;5100924;28;20183;-81
2022/09/23 01:54:38;;;;;;;6.17;5.07;;;;;;;;;;5100927;28;20176;-81
2022/09/23 01:57:52;;;;;;;6.37;4.20;;;;;;;;;;5077687;28;20623;-81
2022/09/23 02:01:02;;;;;;;5.03;4.40;;;;;;;;;;5077751;28;20179;-81
2022/09/23 02:04:16;;;;;;;7.80;4.27;;;;;;;;;;5101005;28;20615;-81
2022/09/23 02:07:28;;;;;;;5.60;5.00;;;;;;;;;;5100243;28;20183;-81
2022/09/23 02:10:43;;;;;;;6.17;3.90;;;;;;;;;;5089147;28;20182;-81
2022/09/23 02:14:01;;;;;;;6.87;4.13;;;;;;;;;;5077483;28;20210;-82
2022/09/23 02:17:12;;;;;;;6.53;4.47;;;;;;;;;;5089111;28;20178;-82
2022/09/23 02:20:20;;;;;;;5.10;4.60;;;;;;;;;;5087830;28;20183;-81
2022/09/23 02:23:39;;;;;;;6.17;5.00;;;;;;;;;;5100134;28;20211;-82
2022/09/23 02:26:51;;;;;;;6.10;4.97;;;;;;;;;;5088889;28;20179;-82
2022/09/23 02:30:11;;;;;;;7.20;4.53;;;;;;;;;;5088480;28;20195;-81
2022/09/23 02:33:22;;;;;;;7.30;4.47;;;;;;;;;;5099457;28;20222;-81
2022/09/23 02:36:31;;;;;;;5.83;5.20;;;;;;;;;;5076839;28;20544;-81
2022/09/23 02:39:47;;;;;;;6.10;5.17;;;;;;;;;;5087950;28;20179;-81
2022/09/23 02:43:07;;;;;;;5.63;4.93;;;;;;;;;;5111565;28;20210;-81
2022/09/23 02:46:12;;;;;;;7.10;5.37;;;;;;;;;;5100405;28;20187;-81
2022/09/23 02:49:24;;;;;;;5.83;5.03;;;;;;;;;;5099325;28;20638;-81
2022/09/23 02:52:28;;;;;;;7.13;5.30;;;;;;;;;;5088394;28;20222;-81
2022/09/23 02:55:33;;;;;;;5.70;5.10;;;;;;;;;;5087840;28;20546;-81
2022/09/23 02:58:38;;;;;;;7.33;5.37;;;;;;;;;;5088657;28;20179;-81
2022/09/23 03:01:43;;;;;;;6.00;4.90;;;;;;;;;;5088167;28;20217;-81
2022/09/23 03:05:07;;;;;;;6.40;4.57;;;;;;;;;;5088877;28;20174;-82
2022/09/23 03:08:18;;;;;;;5.10;4.60;;;;;;;;;;5088624;28;20179;-81
2022/09/23 03:11:23;;;;;;;6.80;4.90;;;;;;;;;;5099586;28;20187;-81
2022/09/23 03:14:43;;;;;;;5.60;4.80;;;;;;;;;;5099118;28;20183;-81
2022/09/23 03:18:01;;;;;;;6.20;5.20;;;;;;;;;;5089048;28;20570;-81
2022/09/23 03:21:16;;;;;;;5.50;4.90;;;;;;;;;;5080089;28;20184;-81
2022/09/23 03:24:22;;;;;;;8.03;4.73;;;;;;;;;;5068384;28;20176;-81
2022/09/23 03:27:30;;;;;;;8.07;4.50;;;;;;;;;;5067766;28;20547;-81
2022/09/23 03:30:36;;;;;;;7.37;5.40;;;;;;;;;;5069288;28;20180;-81
2022/09/23 03:33:46;;;;;;;6.00;5.07;;;;;;;;;;5080706;28;20204;-81
2022/09/23 03:37:01;;;;;;;6.13;5.10;;;;;;;;;;5055693;28;20180;-81
2022/09/23 03:40:11;;;;;;;6.27;5.30;;;;;;;;;;5068947;28;20176;-81
2022/09/23 03:43:15;;;;;;;6.53;4.60;;;;;;;;;;5078003;28;20204;-81
2022/09/23 03:46:20;;;;;;;7.50;5.03;;;;;;;;;;5078957;28;20545;-80
2022/09/23 03:49:31;;;;;;;6.97;5.13;;;;;;;;;;5068903;28;20199;-82
2022/09/23 03:52:38;;;;;;;8.00;4.93;;;;;;;;;;5094760;28;20223;-81
2022/09/23 03:55:44;;;;;;;5.67;4.80;;;;;;;;;;5083084;28;20210;-80
2022/09/23 03:58:48;;;;;;;6.80;4.93;;;;;;;;;;5090785;28;20179;-82
2022/09/23 04:01:54;;;;;;;5.97;5.00;;;;;;;;;;5102282;28;20248;-81
2022/09/23 04:04:58;;;;;;;6.57;5.20;;;;;;;;;;5102378;28;20522;-80
2022/09/23 04:08:03;;;;;;;6.37;4.73;;;;;;;;;;5103057;28;20638;-80
2022/09/23 04:11:07;;;;;;;8.77;5.27;;;;;;;;;;5090078;28;20182;-81
2022/09/23 04:14:12;;;;;;;6.53;4.80;;;;;;;;;;5079110;28;20210;-81
2022/09/23 04:17:16;;;;;;;6.37;4.87;;;;;;;;;;5114279;28;20546;-82
2022/09/23 04:20:20;;;;;;;5.77;4.93;;;;;;;;;;5091091;28;20657;-81
2022/09/23 04:23:26;;;;;;;6.53;4.97;;;;;;;;;;5114610;28;20206;-82
2022/09/23 04:26:31;;;;;;;9.97;5.57;;;;;;;;;;5091840;28;20175;-81
2022/09/23 04:29:36;;;;;;;6.47;5.33;;;;;;;;;;5076430;28;20581;-81
2022/09/23 04:32:40;;;;;;;6.30;5.10;;;;;;;;;;5060030;28;20694;-81
2022/09/23 04:35:49;;;;;;;7.00;5.33;;;;;;;;;;5072258;28;20195;-81
2022/09/23 04:38:53;;;;;;;8.07;5.10;;;;;;;;;;5083297;28;20179;-81
2022/09/23 04:41:58;;;;;;;6.20;5.43;;;;;;;;;;5071923;28;20214;-81
2022/09/23 04:45:04;;;;;;;6.37;4.90;;;;;;;;;;5084008;28;20171;-82
2022/09/23 04:48:09;;;;;;;5.43;4.67;;;;;;;;;;5084133;28;20176;-81
2022/09/23 04:51:18;;;;;;;7.67;5.30;;;;;;;;;;5085224;28;20198;-81
2022/09/23 04:54:22;;;;;;;13.30;8.57;;;;;;;;;;5090739;28;20223;-82
2022/09/23 04:57:28;;;;;;;12.33;8.73;;;;;;;;;;5092141;28;20171;-82
2022/09/23 05:00:32;;;;;;;12.20;8.00;;;;;;;;;;5103500;28;20171;-81
2022/09/23 05:03:37;;;;;;;11.47;7.67;;;;;;;;;;5103568;28;20179;-81
2022/09/23 05:06:43;;;;;;;14.77;11.23;;;;;;;;;;5103299;28;20198;-81
2022/09/23 05:09:47;;;;;;;15.50;12.03;;;;;;;;;;5082810;28;20198;-82
2022/09/23 05:12:56;;;;;;;15.27;9.93;;;;;;;;;;5095227;28;20223;-82
2022/09/23 05:16:04;;;;;;;12.17;9.90;;;;;;;;;;5094269;28;20202;-82
2022/09/23 05:19:08;;;;;;;17.77;10.33;;;;;;;;;;5095553;28;20199;-82
2022/09/23 05:22:13;;;;;;;13.90;9.80;;;;;;;;;;5089346;28;20698;-82
2022/09/23 05:25:17;;;;;;;14.03;10.47;;;;;;;;;;5085655;28;20543;-82
2022/09/23 05:28:22;;;;;;;15.40;10.37;;;;;;;;;;5063915;28;20180;-82
2022/09/23 05:31:28;;;;;;;10.53;7.80;;;;;;;;;;5064051;28;20176;-81
2022/09/23 05:34:32;;;;;;;7.73;6.57;;;;;;;;;;5086297;28;20207;-82
2022/09/23 05:37:37;;;;;;;8.50;6.43;;;;;;;;;;5083636;28;20179;-81
2022/09/23 05:40:42;;;;;;;7.07;6.37;;;;;;;;;;5094360;28;20184;-81
2022/09/23 05:43:46;;;;;;;8.37;6.57;;;;;;;;;;5083250;28;20183;-81
2022/09/23 05:46:51;;;;;;;11.00;7.40;;;;;;;;;;5071433;28;20195;-81
2022/09/23 05:49:55;;;;;;;17.67;10.80;;;;;;;;;;5071317;28;20199;-81
2022/09/23 05:52:59;;;;;;;13.40;8.90;;;;;;;;;;5059645;28;20228;-82
2022/09/23 05:56:05;;;;;;;12.67;8.10;;;;;;;;;;5071387;28;20207;-81
2022/09/23 05:59:09;;;;;;;11.37;8.23;;;;;;;;;;5083269;28;20180;-82
2022/09/23 06:02:14;;;;;;;10.87;6.93;;;;;;;;;;5071156;28;20219;-81
2022/09/23 06:05:19;;;;;;;10.57;7.30;;;;;;;;;;5083001;28;20179;-81
2022/09/23 06:08:23;;;;;;;11.67;8.00;;;;;;;;;;5071943;28;20179;-81
2022/09/23 06:11:32;;;;;;;9.77;6.90;;;;;;;;;;5071601;28;20195;-81
2022/09/23 06:14:37;;;;;;;11.80;7.10;;;;;;;;;;5083243;28;20207;-81
2022/09/23 06:17:41;;;;;;;13.63;7.57;;;;;;;;;;5071148;28;20523;-81
2022/09/23 06:20:45;;;;;;;11.80;6.67;;;;;;;;;;5059865;28;20622;-81
2022/09/23 06:23:50;;;;;;;9.03;6.77;;;;;;;;;;5059726;28;20191;-81
2022/09/23 06:26:54;;;;;;;14.43;6.90;;;;;;;;;;5083129;28;20187;-81
2022/09/23 06:29:58;;;;;;;8.67;5.77;;;;;;;;;;5082636;28;20199;-81
2022/09/23 06:33:03;;;;;;;11.77;6.30;;;;;;;;;;5071339;28;20216;-82
2022/09/23 06:36:09;;;;;;;12.33;7.03;;;;;;;;;;5083760;28;20195;-81
2022/09/23 06:39:14;;;;;;;16.77;11.67;;;;;;;;;;5083058;28;20191;-81
2022/09/23 06:42:18;;;;;;;12.53;8.87;;;;;;;;;;5081971;28;20207;-82
2022/09/23 06:45:23;;;;;;;15.67;9.63;;;;;;;;;;5082178;28;20615;-81
2022/09/23 06:48:28;;;;;;;15.33;8.23;;;;;;;;;;5070651;28;20191;-81
2022/09/23 06:51:32;;;;;;;13.60;8.67;;;;;;;;;;5081789;28;20211;-82
2022/09/23 06:54:36;;;;;;;11.60;9.53;;;;;;;;;;5058709;28;20219;-82
2022/09/23 06:57:40;;;;;;;9.77;7.47;;;;;;;;;;5070468;28;20172;-81
2022/09/23 07:00:44;;;;;;;10.23;8.03;;;;;;;;;;5081638;28;20187;-81
2022/09/23 07:03:49;;;;;;;9.13;7.40;;;;;;;;;;5092995;28;20171;-82
2022/09/23 07:06:54;;;;;;;10.53;7.30;;;;;;;;;;5068636;28;20176;-83
2022/09/23 07:09:59;;;;;;;9.13;7.03;;;;;;;;;;5095655;28;20198;-82
2022/09/23 07:13:03;;;;;;;11.20;6.73;;;;;;;;;;5069865;28;20214;-81
2022/09/23 07:16:09;;;;;;;8.70;6.07;;;;;;;;;;5066866;28;20662;-82
2022/09/23 07:19:13;;;;;;;8.17;5.83;;;;;;;;;;5084704;28;20203;-82
2022/09/23 07:22:17;;;;;;;6.73;5.27;;;;;;;;;;5087390;28;20219;-82
2022/09/23 07:25:22;;;;;;;5.63;5.10;;;;;;;;;;5077415;28;20172;-81
2022/09/23 07:28:27;;;;;;;6.27;4.77;;;;;;;;;;5080838;28;20184;-81
2022/09/23 07:31:34;;;;;;;10.50;5.37;;;;;;;;;;5080169;28;20215;-81
2022/09/23 07:34:38;;;;;;;6.40;4.47;;;;;;;;;;5077173;28;20547;-82
2022/09/23 07:37:42;;;;;;;4.93;4.47;;;;;;;;;;5092730;28;20198;-81
2022/09/23 07:40:47;;;;;;;6.13;4.33;;;;;;;;;;5074975;28;20550;-82
2022/09/23 07:43:54;;;;;;;7.37;5.10;;;;;;;;;;5077423;28;20184;-80
2022/09/23 07:46:59;;;;;;;5.17;4.63;;;;;;;;;;5097057;28;20546;-82
2022/09/23 07:50:04;;;;;;;14.30;5.63;;;;;;;;;;5097508;28;20195;-82
2022/09/23 07:53:08;;;;;;;9.40;4.73;;;;;;;;;;5097002;28;20218;-82
2022/09/23 07:56:12;;;;;;;4.23;3.80;;;;;;;;;;5096185;28;20202;-83
2022/09/23 07:59:18;;;;;;;17.63;5.20;;;;;;;;;;5099574;28;20187;-81
2022/09/23 08:02:23;;;;;;;10.30;4.60;;;;;;;;;;5099337;28;20215;-82
2022/09/23 08:05:27;;;;;;;5.57;4.40;;;;;;;;;;5102885;28;20171;-81
2022/09/23 08:08:31;;;;;;;6.40;4.10;;;;;;;;;;5102626;28;20666;-82
2022/09/23 08:11:38;;;;;;;5.87;3.97;;;;;;;;;;5102724;28;20681;-81
2022/09/23 08:14:43;;;;;;;4.73;4.00;;;;;;;;;;5078575;28;20222;-81
2022/09/23 08:17:47;;;;;;;4.63;4.13;;;;;;;;;;5079186;28;20174;-81
2022/09/23 08:20:51;;;;;;;6.40;3.80;;;;;;;;;;5113972;28;20178;-81
2022/09/23 08:23:55;;;;;;;5.93;4.00;;;;;;;;;;5102804;28;20179;-81
2022/09/23 08:27:00;;;;;;;9.33;4.50;;;;;;;;;;5101617;28;20187;-81
2022/09/23 08:30:04;;;;;;;4.67;4.03;;;;;;;;;;5113243;28;20175;-81
2022/09/23 08:33:10;;;;;;;4.40;4.00;;;;;;;;;;5090237;28;20210;-81
2022/09/23 08:36:14;;;;;;;7.53;4.20;;;;;;;;;;5088823;28;20186;-81
2022/09/23 08:39:19;;;;;;;4.23;3.80;;;;;;;;;;5089662;28;20175;-81
2022/09/23 08:42:36;;;;;;;6.03;4.27;;;;;;;;;;5078154;28;20218;-81
2022/09/23 08:45:42;;;;;;;6.33;3.73;;;;;;;;;;5100367;28;20520;-81
2022/09/23 08:48:47;;;;;;;4.53;3.73;;;;;;;;;;5077596;28;20626;-81
2022/09/23 08:51:53;;;;;;;5.77;3.83;;;;;;;;;;5088650;28;20211;-81
2022/09/23 08:54:58;;;;;;;4.97;3.50;;;;;;;;;;5099688;28;20210;-81
2022/09/23 08:58:18;;;;;;;4.73;3.90;;;;;;;;;;5088059;28;20182;-81
2022/09/23 09:01:33;;;;;;;10.17;4.00;;;;;;;;;;5101245;28;20183;-81
2022/09/23 09:04:43;;;;;;;6.60;3.57;;;;;;;;;;5101222;28;20171;-81
2022/09/23 09:07:48;;;;;;;4.83;3.47;;;;;;;;;;5100732;28;20183;-81
2022/09/23 09:10:54;;;;;;;4.27;3.87;;;;;;;;;;5089183;28;20179;-81
2022/09/23 09:14:16;;;;;;;7.90;3.40;;;;;;;;;;5112455;28;20673;-80
2022/09/23 09:17:38;;;;;;;6.73;5.10;;;;;;;;;;5100124;28;20187;-81
2022/09/23 09:21:22;;;;;;;4.37;3.87;;;;;;;;;;5088456;28;20175;-81
2022/09/23 09:24:33;;;;;;;6.10;3.57;;;;;;;;;;5018953;28;20197;-81
2022/09/23 09:27:40;;;;;;;9.03;4.50;;;;;;;;;;5093669;28;20207;-81
2022/09/23 09:30:49;;;;;;;6.30;4.20;;;;;;;;;;5079263;28;20291;-81
2022/09/23 09:34:03;;;;;;;5.83;3.70;;;;;;;;;;5090312;28;20175;-81
2022/09/23 09:37:22;;;;;;;4.13;3.60;;;;;;;;;;5079425;28;20196;-80
2022/09/23 09:40:26;;;;;;;6.53;3.50;;;;;;;;;;5079190;28;20223;-81
2022/09/23 09:43:30;;;;;;;3.13;2.73;;;;;;;;;;5078488;28;20208;-81
2022/09/23 09:47:11;;;;;;;4.97;3.13;;;;;;;;;;5078607;28;20514;-81
2022/09/23 09:50:20;;;;;;;5.50;2.90;;;;;;;;;;5021903;28;20178;-80
2022/09/23 09:53:34;;;;;;;4.77;2.90;;;;;;;;;;5079778;28;20219;-81
2022/09/23 09:56:40;;;;;;;6.73;3.10;;;;;;;;;;5078591;28;20194;-80
2022/09/23 09:59:45;;;;;;;3.47;3.00;;;;;;;;;;5079341;28;20172;-81
2022/09/23 10:03:23;;;;;;;3.10;2.63;;;;;;;;;;5098787;28;20573;-81
2022/09/23 10:06:33;;;;;;;4.00;2.93;;;;;;;;;;5110962;28;20171;-81
2022/09/23 10:09:41;;;;;;;2.80;2.50;;;;;;;;;;5098797;28;20176;-81
2022/09/23 10:12:47;;;;;;;10.37;2.93;;;;;;;;;;5111038;28;20716;-81
2022/09/23 10:15:53;;;;;;;3.07;2.70;;;;;;;;;;5088258;28;20200;-81
2022/09/23 10:19:00;;;;;;;3.73;2.97;;;;;;;;;;5086820;28;20177;-81
2022/09/23 10:22:17;;;;;;;3.20;2.50;;;;;;;;;;5086343;28;20214;-81
2022/09/23 10:25:25;;;;;;;5.37;2.60;;;;;;;;;;5097932;28;20178;-81
2022/09/23 10:28:38;;;;;;;2.72;2.50;;;;;;;;;;5086817;28;20178;-81
2022/09/23 10:31:44;;;;;;;2.37;2.07;;;;;;;;;;5085589;28;20213;-81
2022/09/23 10:34:52;;;;;;;2.30;2.10;;;;;;;;;;5085090;28;20214;-81
2022/09/23 10:37:58;;;;;;;2.90;2.50;;;;;;;;;;5084771;28;20183;-81
2022/09/23 10:48:11;;;;;;;4.87;2.50;;;;;;;;;;5085330;28;20185;-81
2022/09/23 10:51:32;;;;;;;3.38;3.05;;;;;;;;;;5097218;28;20179;-81
2022/09/23 10:55:00;;;;;;;2.73;2.37;;;;;;;;;;5108866;28;20688;-81
2022/09/23 10:58:26;;;;;;;4.93;2.87;;;;;;;;;;5086656;28;20190;-81
2022/09/23 11:01:43;;;;;;;3.80;2.40;;;;;;;;;;5103829;28;20215;-81
2022/09/23 11:05:24;;;;;;;3.10;2.73;;;;;;;;;;5104214;28;20187;-81
2022/09/23 11:09:02;;;;;;;4.03;2.50;;;;;;;;;;5102947;28;20637;-81
2022/09/23 11:12:30;;;;;;;4.20;2.50;;;;;;;;;;5100788;28;20212;-81
2022/09/23 11:15:50;;;;;;;4.83;2.70;;;;;;;;;;5077316;28;20212;-81
2022/09/23 11:19:06;;;;;;;3.10;2.80;;;;;;;;;;5100331;28;20180;-80
2022/09/23 11:22:22;;;;;;;3.33;2.83;;;;;;;;;;5088420;28;20572;-81
2022/09/23 11:25:56;;;;;;;3.37;2.80;;;;;;;;;;5100657;28;20194;-80
2022/09/23 11:29:23;;;;;;;12.13;3.40;;;;;;;;;;5104347;28;20186;-80
2022/09/23 11:32:42;;;;;;;3.70;3.20;;;;;;;;;;5104244;28;20218;-80
2022/09/23 11:35:54;;;;;;;3.43;3.10;;;;;;;;;;5101533;28;20234;-80
2022/09/23 11:39:02;;;;;;;4.77;3.27;;;;;;;;;;5102063;28;20195;-81
2022/09/23 11:42:16;;;;;;;3.10;2.80;;;;;;;;;;5090507;28;20702;-81
2022/09/23 11:45:25;;;;;;;4.20;3.13;;;;;;;;;;5091223;28;20179;-81
2022/09/23 11:48:37;;;;;;;4.53;3.50;;;;;;;;;;5097477;28;20187;-81
2022/09/23 11:52:01;;;;;;;4.20;3.00;;;;;;;;;;5090483;28;20222;-80
2022/09/23 11:55:18;;;;;;;3.90;2.40;;;;;;;;;;5098897;28;20211;-80
2022/09/23 11:58:28;;;;;;;3.40;2.50;;;;;;;;;;5088167;28;20187;-81
2022/09/23 12:01:54;;;;;;;2.73;2.37;;;;;;;;;;5089517;28;20206;-81
2022/09/23 12:05:11;;;;;;;7.10;2.60;;;;;;;;;;5103162;28;20171;-81
2022/09/23 12:08:28;;;;;;;2.67;2.47;;;;;;;;;;5101755;28;20183;-81
2022/09/23 12:11:42;;;;;;;5.00;2.60;;;;;;;;;;5100651;28;20214;-81
2022/09/23 12:15:16;;;;;;;2.50;1.70;;;;;;;;;;5102829;28;20543;-81
2022/09/23 12:18:37;;;;;;;3.37;2.00;;;;;;;;;;5088291;28;20199;-80
2022/09/23 12:22:00;;;;;;;2.43;2.10;;;;;;;;;;5101298;28;20214;-81
2022/09/23 12:25:23;;;;;;;3.93;2.30;;;;;;;;;;5101996;28;20176;-81
2022/09/23 12:28:34;;;;;;;2.80;2.00;;;;;;;;;;5090813;28;20184;-81
2022/09/23 12:31:40;;;;;;;4.60;2.47;;;;;;;;;;5089980;28;20564;-81
2022/09/23 12:34:48;;;;;;;4.07;2.60;;;;;;;;;;5091010;28;20183;-81
2022/09/23 12:37:53;;;;;;;2.70;2.50;;;;;;;;;;5102539;28;20179;-80
2022/09/23 12:40:58;;;;;;;2.67;1.80;;;;;;;;;;5103010;28;20189;-81
2022/09/23 12:44:09;;;;;;;5.20;2.17;;;;;;;;;;5103150;28;20180;-81
2022/09/23 12:47:13;;;;;;;3.40;2.00;;;;;;;;;;5102909;28;20180;-81
2022/09/23 12:50:55;;;;;;;2.07;1.87;;;;;;;;;;5102175;28;20201;-81
2022/09/23 12:54:03;;;;;;;2.20;2.00;;;;;;;;;;5091059;28;20174;-80
2022/09/23 12:57:32;;;;;;;2.73;2.40;;;;;;;;;;5090574;28;20199;-81
2022/09/23 13:00:36;;;;;;;2.70;2.20;;;;;;;;;;5090144;28;20181;-81
2022/09/23 13:07:26;;;;;;;2.23;2.03;;;;;;;;;;5102869;28;20180;-81
2022/09/23 13:10:37;;;;;;;2.17;1.97;;;;;;;;;;5090172;28;20181;-80
2022/09/23 13:13:44;;;;;;;2.70;2.10;;;;;;;;;;5100463;28;20196;-81
2022/09/23 13:16:49;;;;;;;2.83;2.20;;;;;;;;;;5101637;28;20210;-81
2022/09/23 13:20:02;;;;;;;2.97;2.00;;;;;;;;;;5101169;28;20180;-80
2022/09/23 13:23:10;;;;;;;2.97;1.80;;;;;;;;;;5101281;28;20217;-81
2022/09/23 13:26:14;;;;;;;4.37;1.73;;;;;;;;;;5100655;28;20196;-81
2022/09/23 13:29:27;;;;;;;2.30;1.90;;;;;;;;;;5101371;28;20180;-81
2022/09/23 13:32:35;;;;;;;3.53;1.80;;;;;;;;;;5101544;28;20212;-81
2022/09/23 13:35:53;;;;;;;4.73;1.93;;;;;;;;;;5111783;28;20214;-81
2022/09/23 13:39:27;;;;;;;10.87;2.30;;;;;;;;;;5101167;28;20197;-81
2022/09/23 13:42:36;;;;;;;4.90;2.13;;;;;;;;;;5089082;28;20220;-81
2022/09/23 13:45:43;;;;;;;5.43;2.33;;;;;;;;;;5089985;28;20185;-81
2022/09/23 13:48:53;;;;;;;2.50;1.93;;;;;;;;;;5102281;28;20181;-81
2022/09/23 13:51:58;;;;;;;11.10;2.50;;;;;;;;;;5101318;28;20211;-81
2022/09/23 13:55:02;;;;;;;6.90;1.87;;;;;;;;;;5101698;28;20179;-81
2022/09/23 13:58:17;;;;;;;5.37;4.07;;;;;;;;;;5102366;28;20176;-81
2022/09/23 14:01:31;;;;;;;7.00;3.00;;;;;;;;;;5100778;28;20182;-81
2022/09/23 14:04:35;;;;;;;12.87;2.40;;;;;;;;;;5112676;28;20180;-81
2022/09/23 14:07:39;;;;;;;28.33;3.50;;;;;;;;;;5100674;28;20199;-81
2022/09/23 14:10:44;;;;;;;7.90;2.20;;;;;;;;;;5089695;28;20179;-80
2022/09/23 14:13:53;;;;;;;2.50;2.20;;;;;;;;;;5077907;28;20178;-80
2022/09/23 14:16:58;;;;;;;2.80;2.20;;;;;;;;;;5100916;28;20207;-81
2022/09/23 14:20:02;;;;;;;5.73;2.03;;;;;;;;;;5101154;28;20184;-81
2022/09/23 14:23:13;;;;;;;6.93;2.10;;;;;;;;;;5101480;28;20214;-80
2022/09/23 14:26:18;;;;;;;2.53;2.23;;;;;;;;;;5101659;28;20176;-81
2022/09/23 14:29:25;;;;;;;5.33;2.33;;;;;;;;;;5089688;28;20176;-80
2022/09/23 14:32:31;;;;;;;4.47;2.10;;;;;;;;;;5090114;28;20219;-81
2022/09/23 14:35:43;;;;;;;2.93;1.70;;;;;;;;;;5101595;28;20675;-81
2022/09/23 14:38:50;;;;;;;3.17;2.00;;;;;;;;;;5102189;28;20199;-80
2022/09/23 14:41:55;;;;;;;2.73;1.93;;;;;;;;;;5089086;28;20218;-81
2022/09/23 14:45:00;;;;;;;6.00;2.50;;;;;;;;;;5101931;28;20515;-81
2022/09/23 14:48:09;;;;;;;3.40;2.00;;;;;;;;;;5101478;28;20175;-80
2022/09/23 14:51:13;;;;;;;4.47;1.80;;;;;;;;;;5089533;28;20179;-80
2022/09/23 14:54:39;;;;;;;2.83;2.13;;;;;;;;;;5101769;28;20519;-81
2022/09/23 14:57:44;;;;;;;3.10;1.97;;;;;;;;;;5101296;28;20171;-81
2022/09/23 15:01:00;;;;;;;2.30;1.90;;;;;;;;;;5100365;28;20194;-80
2022/09/23 15:04:10;;;;;;;6.40;2.17;;;;;;;;;;5102043;28;20179;-81
2022/09/23 15:07:19;;;;;;;7.90;2.00;;;;;;;;;;5100719;28;20187;-81
2022/09/23 15:10:30;;;;;;;1.50;1.40;;;;;;;;;;5101195;28;20175;-80
2022/09/23 15:13:45;;;;;;;2.73;2.00;;;;;;;;;;5100394;28;20214;-81
2022/09/23 15:16:49;;;;;;;4.57;2.30;;;;;;;;;;5101185;28;20227;-81
2022/09/23 15:19:57;;;;;;;4.03;2.00;;;;;;;;;;5112448;28;20178;-81
2022/09/23 15:23:01;;;;;;;4.07;2.40;;;;;;;;;;5102125;28;20562;-81
2022/09/23 15:26:10;;;;;;;7.53;2.53;;;;;;;;;;5078571;28;20171;-81
2022/09/23 15:29:14;;;;;;;4.47;2.27;;;;;;;;;;5101520;28;20179;-81
2022/09/23 15:32:20;;;;;;;3.17;2.30;;;;;;;;;;5100634;28;20211;-80
2022/09/23 15:35:25;;;;;;;10.03;2.80;;;;;;;;;;5112569;28;20183;-81
2022/09/23 15:38:30;;;;;;;3.43;2.17;;;;;;;;;;5100064;28;20183;-81
2022/09/23 15:41:33;;;;;;;15.73;3.07;;;;;;;;;;5101427;28;20214;-80
2022/09/23 15:44:38;;;;;;;13.37;2.57;;;;;;;;;;5101747;28;20178;-81
2022/09/23 15:47:44;;;;;;;6.27;2.50;;;;;;;;;;5093303;28;20175;-81
2022/09/23 15:50:49;;;;;;;5.10;2.97;;;;;;;;;;5092768;28;20175;-80
2022/09/23 15:53:55;;;;;;;11.43;2.67;;;;;;;;;;5092658;28;20175;-80
2022/09/23 15:57:02;;;;;;;5.60;2.50;;;;;;;;;;5104019;28;20222;-81
2022/09/23 16:00:07;;;;;;;10.30;3.00;;;;;;;;;;5105497;28;20171;-81
2022/09/23 16:03:18;;;;;;;10.43;2.53;;;;;;;;;;5105001;28;20215;-81
2022/09/23 16:06:23;;;;;;;5.30;2.80;;;;;;;;;;5082104;28;20627;-81
2022/09/23 16:09:30;;;;;;;5.50;2.53;;;;;;;;;;5093163;28;20195;-80
2022/09/23 16:12:35;;;;;;;3.60;2.53;;;;;;;;;;5105393;28;20697;-80
2022/09/23 16:15:40;;;;;;;22.83;3.60;;;;;;;;;;5104412;28;20175;-80
2022/09/23 16:18:44;;;;;;;25.93;4.17;;;;;;;;;;5104315;28;20179;-81
2022/09/23 16:21:48;;;;;;;37.87;4.97;;;;;;;;;;5104074;28;20590;-81
2022/09/23 16:24:53;;;;;;;19.90;4.13;;;;;;;;;;5103965;28;20179;-80
2022/09/23 16:27:57;;;;;;;11.03;3.57;;;;;;;;;;5103593;28;20178;-80
2022/09/23 16:31:01;;;;;;;6.23;3.20;;;;;;;;;;5103618;28;20175;-80
2022/09/23 16:34:06;;;;;;;7.67;3.50;;;;;;;;;;5102989;28;20179;-80
2022/09/23 16:37:14;;;;;;;26.73;4.20;;;;;;;;;;5102669;28;20206;-80
2022/09/23 16:40:21;;;;;;;8.43;3.17;;;;;;;;;;5102776;28;20179;-81
2022/09/23 16:43:31;;;;;;;6.97;3.30;;;;;;;;;;5090443;28;20218;-81
2022/09/23 16:46:35;;;;;;;4.40;2.40;;;;;;;;;;5091090;28;20171;-80
2022/09/23 16:49:40;;;;;;;5.17;2.70;;;;;;;;;;5091081;28;20183;-80
2022/09/23 16:52:45;;;;;;;8.27;3.13;;;;;;;;;;5101360;28;20562;-80
2022/09/23 16:55:52;;;;;;;3.50;2.67;;;;;;;;;;5100964;28;20551;-81
2022/09/23 16:58:56;;;;;;;7.87;2.90;;;;;;;;;;5102614;28;20183;-80
2022/09/23 17:05:22;;;;;;;3.20;2.53;;;;;;;;;;5103555;28;20526;-80
2022/09/23 17:08:26;;;;;;;3.63;2.50;;;;;;;;;;5103480;28;20199;-80
2022/09/23 17:11:30;;;;;;;4.57;2.73;;;;;;;;;;5100822;28;20214;-80
2022/09/23 17:14:35;;;;;;;6.23;2.67;;;;;;;;;;5098794;28;20178;-80
2022/09/23 17:17:39;;;;;;;8.43;2.80;;;;;;;;;;5075735;28;20207;-81
2022/09/23 17:20:43;;;;;;;3.63;2.80;;;;;;;;;;5088186;28;20274;-80
2022/09/23 17:23:48;;;;;;;3.33;2.70;;;;;;;;;;5095128;28;20179;-81
2022/09/23 17:26:52;;;;;;;3.03;2.70;;;;;;;;;;5095774;28;20179;-80
2022/09/23 17:29:57;;;;;;;4.57;2.83;;;;;;;;;;5112741;28;20202;-81
2022/09/23 17:33:01;;;;;;;5.47;2.97;;;;;;;;;;5099903;28;20214;-80
2022/09/23 17:36:08;;;;;;;4.87;3.20;;;;;;;;;;5098802;28;20190;-80
2022/09/23 17:39:12;;;;;;;3.80;3.10;;;;;;;;;;5086768;28;20662;-80
2022/09/23 17:42:18;;;;;;;3.30;2.90;;;;;;;;;;5088962;28;20673;-80
2022/09/23 17:45:22;;;;;;;4.17;3.17;;;;;;;;;;5078156;28;20174;-80
2022/09/23 17:48:26;;;;;;;3.23;2.80;;;;;;;;;;5088887;28;20187;-81
2022/09/23 17:51:30;;;;;;;3.60;3.20;;;;;;;;;;5112651;28;20693;-81
2022/09/23 17:54:35;;;;;;;4.30;3.30;;;;;;;;;;5099523;28;20198;-80
2022/09/23 17:57:39;;;;;;;5.17;3.30;;;;;;;;;;5101894;28;20230;-81
2022/09/23 18:00:47;;;;;;;5.53;3.10;;;;;;;;;;5099759;28;20179;-81
2022/09/23 18:04:01;;;;;;;3.13;2.77;;;;;;;;;;5100857;28;20549;-81
2022/09/23 18:07:05;;;;;;;3.93;2.80;;;;;;;;;;5100638;28;20178;-81
2022/09/23 18:10:09;;;;;;;3.30;2.80;;;;;;;;;;5088325;28;20174;-80
2022/09/23 18:13:14;;;;;;;5.87;3.07;;;;;;;;;;5099711;28;20214;-80
2022/09/23 18:16:19;;;;;;;3.33;2.70;;;;;;;;;;5099174;28;20186;-80
2022/09/23 18:19:23;;;;;;;3.17;2.80;;;;;;;;;;5087768;28;20198;-81
2022/09/23 18:22:27;;;;;;;3.10;2.63;;;;;;;;;;5099867;28;20562;-81
2022/09/23 18:25:33;;;;;;;5.13;2.70;;;;;;;;;;5088490;28;20167;-81
2022/09/23 18:28:38;;;;;;;3.70;2.70;;;;;;;;;;5084725;28;20194;-82
2022/09/23 18:31:43;;;;;;;3.23;2.80;;;;;;;;;;5085043;28;20210;-80
2022/09/23 18:34:48;;;;;;;5.03;2.70;;;;;;;;;;5083254;28;20634;-81
2022/09/23 18:37:52;;;;;;;6.67;2.90;;;;;;;;;;5081593;28;20210;-81
2022/09/23 18:40:57;;;;;;;6.03;3.00;;;;;;;;;;5071561;28;20626;-80
2022/09/23 18:44:03;;;;;;;3.87;3.03;;;;;;;;;;5082909;28;20202;-80
2022/09/23 18:50:37;;;;;;;4.43;3.30;;;;;;;;;;5082659;28;20190;-80
2022/09/23 18:50:42;;;;;;;5.23;3.20;;;;;;;;;;5094821;28;20646;-80
2022/09/23 18:53:46;;;;;;;4.90;3.43;;;;;;;;;;5083168;28;20179;-80
2022/09/23 18:56:51;;;;;;;7.53;3.20;;;;;;;;;;5095434;28;20214;-80
2022/09/23 18:59:55;;;;;;;6.83;3.30;;;;;;;;;;5096606;28;20523;-80
2022/09/23 19:02:59;;;;;;;3.60;3.17;;;;;;;;;;5084272;28;20214;-80
2022/09/23 19:06:17;;;;;;;6.83;4.00;;;;;;;;;;5099338;28;20183;-80